Time;durP1;ratioP1;P1;durP2;ratioP2;P2;SDS_P1;SDS_P2;PMS_P1;PMS_P2;Temp;Humidity;BMP_temperature;BMP_pressure;BME280_temperature;BME280_humidity;BME280_pressure;Samples;Min_cycle;Max_cycle;Signal;HPM_P1;HPM_P2
2024/01/01 00:01:55;;;;;;;5.45;2.78;;;;;;;;;;6127390;23;20483;-87
2024/01/01 00:04:39;;;;;;;8.80;3.10;;;;;;;;;;6126612;23;20067;-87
2024/01/01 00:07:23;;;;;;;6.20;2.50;;;;;;;;;;6126118;23;20017;-88
2024/01/01 00:10:07;;;;;;;5.18;2.42;;;;;;;;;;6126861;23;20339;-88
2024/01/01 00:12:51;;;;;;;3.90;1.80;;;;;;;;;;6126668;23;20025;-87
2024/01/01 00:15:35;;;;;;;3.97;2.10;;;;;;;;;;6149349;23;20075;-87
2024/01/01 00:18:20;;;;;;;6.10;1.60;;;;;;;;;;6147924;23;20067;-86
2024/01/01 00:21:04;;;;;;;5.65;2.03;;;;;;;;;;6148575;23;20352;-87
2024/01/01 00:23:48;;;;;;;4.15;1.80;;;;;;;;;;6127231;23;20336;-87
2024/01/01 00:26:34;;;;;;;6.05;1.75;;;;;;;;;;6128330;23;20411;-87
2024/01/01 00:29:21;;;;;;;7.60;2.38;;;;;;;;;;6126566;23;20102;-88
2024/01/01 00:32:05;;;;;;;7.32;2.10;;;;;;;;;;6122674;23;20047;-88
2024/01/01 00:34:49;;;;;;;3.38;1.73;;;;;;;;;;6127536;23;20099;-87
2024/01/01 00:37:33;;;;;;;2.63;1.60;;;;;;;;;;6127292;23;20096;-88
2024/01/01 00:40:23;;;;;;;12.57;2.00;;;;;;;;;;6129815;23;20020;-90
2024/01/01 00:43:07;;;;;;;5.22;2.00;;;;;;;;;;6129741;23;20044;-88
2024/01/01 00:45:55;;;;;;;14.55;2.13;;;;;;;;;;6131092;23;20024;-89
2024/01/01 00:48:38;;;;;;;5.80;1.95;;;;;;;;;;6131373;23;20024;-90
2024/01/01 00:51:26;;;;;;;10.35;2.35;;;;;;;;;;6131055;23;20087;-87
2024/01/01 00:54:11;;;;;;;12.77;3.22;;;;;;;;;;6129829;23;20067;-89
2024/01/01 00:56:55;;;;;;;30.58;3.58;;;;;;;;;;6129698;23;20383;-89
2024/01/01 00:59:39;;;;;;;12.38;2.83;;;;;;;;;;6152412;23;20466;-90
2024/01/01 01:02:23;;;;;;;23.10;4.47;;;;;;;;;;6152833;23;20071;-91
2024/01/01 01:05:07;;;;;;;14.25;4.22;;;;;;;;;;6131449;23;20021;-88
2024/01/01 01:07:51;;;;;;;9.15;3.47;;;;;;;;;;6129458;23;20467;-91
2024/01/01 01:10:35;;;;;;;14.05;4.50;;;;;;;;;;6133162;23;20056;-91
2024/01/01 01:13:19;;;;;;;20.75;6.20;;;;;;;;;;6133103;23;20044;-89
2024/01/01 01:16:03;;;;;;;18.63;5.53;;;;;;;;;;6132328;23;20020;-90
2024/01/01 01:18:47;;;;;;;24.02;6.43;;;;;;;;;;6132360;23;20087;-89
2024/01/01 01:21:31;;;;;;;27.05;8.63;;;;;;;;;;6132782;23;20016;-89
2024/01/01 01:24:15;;;;;;;34.63;8.70;;;;;;;;;;6133445;23;20021;-90
2024/01/01 01:26:59;;;;;;;31.83;8.80;;;;;;;;;;6134417;23;20355;-91
2024/01/01 01:29:43;;;;;;;42.90;10.50;;;;;;;;;;6134387;23;20394;-90
2024/01/01 01:32:27;;;;;;;33.75;8.63;;;;;;;;;;6133551;23;20024;-89
2024/01/01 01:35:11;;;;;;;29.40;9.18;;;;;;;;;;6133368;23;20024;-91
2024/01/01 01:37:55;;;;;;;28.25;8.75;;;;;;;;;;6133574;23;20020;-89
2024/01/01 01:40:39;;;;;;;42.97;9.98;;;;;;;;;;6135810;23;20044;-90
2024/01/01 01:43:23;;;;;;;25.65;9.82;;;;;;;;;;6135294;23;20020;-90
2024/01/01 01:46:07;;;;;;;30.42;9.25;;;;;;;;;;6133964;23;20048;-89
2024/01/01 01:48:51;;;;;;;46.38;11.18;;;;;;;;;;6134142;23;20024;-90
2024/01/01 01:51:35;;;;;;;31.67;9.70;;;;;;;;;;6133639;23;20020;-90
2024/01/01 01:54:20;;;;;;;26.15;7.88;;;;;;;;;;6134225;23;20020;-90
2024/01/01 01:57:08;;;;;;;30.75;8.25;;;;;;;;;;6134608;23;20024;-90
2024/01/01 01:59:52;;;;;;;27.67;7.10;;;;;;;;;;6132648;23;20076;-90
2024/01/01 02:02:37;;;;;;;21.35;7.00;;;;;;;;;;6135806;23;20075;-90
2024/01/01 02:05:24;;;;;;;19.58;7.65;;;;;;;;;;6134864;23;20471;-90
2024/01/01 02:08:08;;;;;;;38.03;7.80;;;;;;;;;;6133945;23;20119;-91
2024/01/01 02:10:52;;;;;;;13.88;4.95;;;;;;;;;;6134419;23;20020;-89
2024/01/01 02:13:36;;;;;;;22.10;5.55;;;;;;;;;;6133042;23;20020;-90
2024/01/01 02:16:20;;;;;;;19.00;4.93;;;;;;;;;;6133664;23;20020;-90
2024/01/01 02:19:08;;;;;;;23.20;5.57;;;;;;;;;;6133353;23;20025;-89
2024/01/01 02:21:53;;;;;;;21.65;4.70;;;;;;;;;;6133324;23;20078;-89
2024/01/01 02:24:37;;;;;;;16.02;4.20;;;;;;;;;;6132689;23;20020;-89
2024/01/01 02:27:20;;;;;;;34.28;5.88;;;;;;;;;;6133304;23;20020;-90
2024/01/01 02:30:09;;;;;;;14.68;3.42;;;;;;;;;;6132425;23;20108;-90
2024/01/01 02:32:52;;;;;;;16.50;3.22;;;;;;;;;;6132674;23;20024;-90
2024/01/01 02:35:36;;;;;;;10.93;3.40;;;;;;;;;;6132855;23;20052;-90
2024/01/01 02:38:20;;;;;;;18.08;4.22;;;;;;;;;;6132902;23;20118;-90
2024/01/01 02:41:04;;;;;;;18.48;4.60;;;;;;;;;;6132419;23;20021;-91
2024/01/01 02:43:48;;;;;;;20.15;4.30;;;;;;;;;;6132495;23;20036;-89
2024/01/01 02:46:32;;;;;;;13.13;4.05;;;;;;;;;;6133249;23;20028;-89
2024/01/01 02:49:16;;;;;;;18.75;4.97;;;;;;;;;;6132288;23;20473;-89
2024/01/01 02:52:00;;;;;;;18.27;3.45;;;;;;;;;;6132059;23;20146;-90
2024/01/01 02:54:44;;;;;;;12.85;3.35;;;;;;;;;;6132009;23;20043;-88
2024/01/01 02:57:28;;;;;;;17.55;3.53;;;;;;;;;;6132183;23;20020;-89
2024/01/01 03:00:14;;;;;;;11.90;3.35;;;;;;;;;;6132131;23;20021;-90
2024/01/01 03:02:58;;;;;;;18.40;3.75;;;;;;;;;;6131732;23;20107;-89
2024/01/01 03:05:43;;;;;;;24.52;5.22;;;;;;;;;;6132843;23;20071;-89
2024/01/01 03:08:27;;;;;;;25.70;4.43;;;;;;;;;;6132869;23;20390;-91
2024/01/01 03:11:11;;;;;;;16.80;3.15;;;;;;;;;;6154406;23;20025;-90
2024/01/01 03:13:55;;;;;;;16.05;3.22;;;;;;;;;;6132563;23;20340;-89
2024/01/01 03:16:38;;;;;;;12.48;3.35;;;;;;;;;;6133031;23;20450;-91
2024/01/01 03:19:22;;;;;;;15.15;3.08;;;;;;;;;;6132803;23;20024;-89
2024/01/01 03:22:06;;;;;;;14.32;2.95;;;;;;;;;;6132719;23;20032;-89
2024/01/01 03:24:50;;;;;;;12.45;3.90;;;;;;;;;;6132521;23;20152;-89
2024/01/01 03:27:35;;;;;;;18.55;4.70;;;;;;;;;;6133106;23;20332;-91
2024/01/01 03:30:21;;;;;;;21.63;3.83;;;;;;;;;;6133369;23;20036;-90
2024/01/01 03:33:05;;;;;;;16.95;4.15;;;;;;;;;;6132969;23;20032;-89
2024/01/01 03:35:52;;;;;;;23.98;4.95;;;;;;;;;;6132968;23;20063;-89
2024/01/01 03:38:36;;;;;;;9.35;3.75;;;;;;;;;;6132194;23;20024;-91
2024/01/01 03:41:24;;;;;;;15.25;3.70;;;;;;;;;;6132398;23;20146;-90
2024/01/01 03:44:10;;;;;;;20.77;4.15;;;;;;;;;;6133140;23;20025;-89
2024/01/01 03:46:54;;;;;;;40.90;5.00;;;;;;;;;;6132922;23;20044;-92
2024/01/01 03:49:39;;;;;;;18.58;3.80;;;;;;;;;;6132725;23;20025;-90
2024/01/01 03:52:23;;;;;;;16.75;4.28;;;;;;;;;;6133694;23;20070;-92
2024/01/01 03:55:07;;;;;;;25.83;4.60;;;;;;;;;;6134387;23;20021;-91
2024/01/01 03:57:51;;;;;;;25.50;5.85;;;;;;;;;;6133658;23;20025;-90
2024/01/01 04:00:35;;;;;;;27.95;5.13;;;;;;;;;;6133701;23;20028;-90
2024/01/01 04:03:19;;;;;;;29.60;4.95;;;;;;;;;;6133296;23;20017;-90
2024/01/01 04:06:03;;;;;;;24.35;5.03;;;;;;;;;;6134327;23;20020;-90
2024/01/01 04:08:47;;;;;;;34.90;6.65;;;;;;;;;;6134430;23;20020;-89
2024/01/01 04:11:31;;;;;;;22.17;5.22;;;;;;;;;;6134055;23;20021;-90
2024/01/01 04:14:15;;;;;;;26.23;5.75;;;;;;;;;;6133184;23;20039;-88
2024/01/01 04:16:59;;;;;;;31.02;5.18;;;;;;;;;;6133034;23;20028;-90
2024/01/01 04:19:47;;;;;;;39.25;5.68;;;;;;;;;;6133019;23;20021;-90
2024/01/01 04:22:31;;;;;;;30.95;5.68;;;;;;;;;;6132291;23;20388;-90
2024/01/01 04:25:15;;;;;;;26.90;4.45;;;;;;;;;;6132455;23;20383;-91
2024/01/01 04:27:59;;;;;;;27.88;5.05;;;;;;;;;;6131253;23;20097;-90
2024/01/01 04:30:43;;;;;;;23.13;4.63;;;;;;;;;;6131520;23;20020;-90
2024/01/01 04:33:27;;;;;;;20.60;4.53;;;;;;;;;;6155126;23;20024;-89
2024/01/01 04:36:11;;;;;;;39.80;5.95;;;;;;;;;;6132718;23;20335;-89
2024/01/01 04:38:55;;;;;;;24.98;4.82;;;;;;;;;;6132500;23;20079;-90
2024/01/01 04:41:39;;;;;;;23.15;4.15;;;;;;;;;;6133098;23;20063;-89
2024/01/01 04:44:26;;;;;;;21.88;4.40;;;;;;;;;;6132291;23;20020;-91
2024/01/01 04:47:10;;;;;;;13.05;4.32;;;;;;;;;;6131857;23;20028;-90
2024/01/01 04:49:54;;;;;;;25.02;4.78;;;;;;;;;;6153295;23;20075;-91
2024/01/01 04:52:38;;;;;;;21.65;3.95;;;;;;;;;;6130899;23;20470;-89
2024/01/01 04:55:44;;;;;;;20.52;4.85;;;;;;;;;;6132740;23;20025;-91
2024/01/01 04:58:28;;;;;;;19.75;3.65;;;;;;;;;;6131485;23;20348;-90
2024/01/01 05:01:12;;;;;;;13.23;3.28;;;;;;;;;;6132167;23;20067;-89
2024/01/01 05:03:56;;;;;;;24.17;4.13;;;;;;;;;;6132754;23;20024;-90
2024/01/01 05:06:40;;;;;;;23.38;4.60;;;;;;;;;;6132560;23;20016;-89
2024/01/01 05:09:24;;;;;;;26.77;4.22;;;;;;;;;;6131324;23;20029;-88
2024/01/01 05:12:17;;;;;;;22.38;3.80;;;;;;;;;;6133039;23;20040;-89
2024/01/01 05:15:04;;;;;;;17.40;4.37;;;;;;;;;;6132157;23;20025;-90
2024/01/01 05:17:52;;;;;;;18.27;4.40;;;;;;;;;;6131978;23;20257;-89
2024/01/01 05:20:39;;;;;;;23.40;4.63;;;;;;;;;;6131985;23;20024;-91
2024/01/01 05:23:25;;;;;;;25.58;4.15;;;;;;;;;;6131994;23;20016;-89
2024/01/01 05:26:12;;;;;;;21.52;5.07;;;;;;;;;;6132482;23;20017;-89
2024/01/01 05:28:56;;;;;;;19.65;4.63;;;;;;;;;;6132710;23;20028;-90
2024/01/01 05:31:40;;;;;;;16.48;3.75;;;;;;;;;;6132701;23;20021;-91
2024/01/01 05:34:24;;;;;;;17.48;3.67;;;;;;;;;;6132041;23;20082;-89
2024/01/01 05:37:08;;;;;;;22.42;4.53;;;;;;;;;;6133229;23;20042;-89
2024/01/01 05:39:52;;;;;;;18.73;4.05;;;;;;;;;;6133073;23;20586;-91
2024/01/01 05:42:36;;;;;;;21.25;4.38;;;;;;;;;;6134008;23;20017;-91
2024/01/01 05:45:20;;;;;;;26.48;5.18;;;;;;;;;;6132863;23;20029;-89
2024/01/01 05:48:07;;;;;;;22.48;7.25;;;;;;;;;;6133459;23;20390;-89
2024/01/01 05:50:51;;;;;;;25.85;5.93;;;;;;;;;;6133598;23;20070;-91
2024/01/01 05:53:38;;;;;;;21.02;4.88;;;;;;;;;;6132907;23;20021;-90
2024/01/01 05:56:22;;;;;;;21.25;5.40;;;;;;;;;;6132691;23;20479;-89
2024/01/01 05:59:06;;;;;;;21.38;4.85;;;;;;;;;;6132991;23;20528;-89
2024/01/01 06:01:52;;;;;;;20.38;4.55;;;;;;;;;;6132932;23;20028;-90
2024/01/01 06:04:36;;;;;;;25.08;6.05;;;;;;;;;;6132852;23;20043;-91
2024/01/01 06:07:20;;;;;;;28.10;4.32;;;;;;;;;;6131808;23;20024;-89
2024/01/01 06:10:04;;;;;;;20.20;5.05;;;;;;;;;;6132580;23;20044;-89
2024/01/01 06:12:48;;;;;;;17.42;5.57;;;;;;;;;;6133785;23;20025;-93
2024/01/01 06:15:32;;;;;;;13.38;5.05;;;;;;;;;;6133248;23;20021;-91
2024/01/01 06:18:17;;;;;;;14.98;4.60;;;;;;;;;;6133015;23;20067;-90
2024/01/01 06:21:01;;;;;;;14.07;4.45;;;;;;;;;;6134370;23;20505;-89
2024/01/01 06:23:45;;;;;;;13.25;4.70;;;;;;;;;;6134535;23;20033;-89
2024/01/01 06:26:36;;;;;;;16.70;4.05;;;;;;;;;;6134084;23;20067;-91
2024/01/01 06:29:26;;;;;;;13.13;4.03;;;;;;;;;;6134435;23;20398;-91
2024/01/01 06:32:25;;;;;;;16.02;4.13;;;;;;;;;;6134511;23;20411;-89
2024/01/01 06:35:11;;;;;;;14.82;4.35;;;;;;;;;;6135136;23;20523;-91
2024/01/01 06:37:56;;;;;;;19.35;4.97;;;;;;;;;;6135302;23;20041;-90
2024/01/01 06:40:43;;;;;;;8.40;4.07;;;;;;;;;;6136205;23;20060;-91
2024/01/01 06:43:30;;;;;;;23.20;4.70;;;;;;;;;;6135802;23;20016;-90
2024/01/01 06:46:15;;;;;;;13.32;5.07;;;;;;;;;;6125843;22;20028;-90
2024/01/01 06:48:59;;;;;;;40.20;8.65;;;;;;;;;;6125851;23;20391;-91
2024/01/01 06:51:47;;;;;;;22.33;5.15;;;;;;;;;;6126312;23;20391;-89
2024/01/01 06:54:32;;;;;;;15.98;5.65;;;;;;;;;;6126152;23;20348;-91
2024/01/01 06:57:16;;;;;;;23.15;6.22;;;;;;;;;;6124441;23;20028;-91
2024/01/01 07:00:00;;;;;;;17.75;5.57;;;;;;;;;;6125751;23;20067;-90
2024/01/01 07:02:45;;;;;;;25.83;5.72;;;;;;;;;;6125593;23;20378;-90
2024/01/01 07:05:30;;;;;;;19.10;5.40;;;;;;;;;;6125423;23;20005;-89
2024/01/01 07:08:13;;;;;;;16.63;6.05;;;;;;;;;;6126009;23;20355;-90
2024/01/01 07:10:57;;;;;;;21.58;5.57;;;;;;;;;;6125964;23;20040;-89
2024/01/01 07:13:41;;;;;;;19.65;5.47;;;;;;;;;;6126135;23;20426;-89
2024/01/01 07:16:26;;;;;;;22.02;5.88;;;;;;;;;;6126096;23;20025;-89
2024/01/01 07:19:10;;;;;;;17.85;6.63;;;;;;;;;;6126588;23;20366;-90
2024/01/01 07:21:56;;;;;;;17.35;5.22;;;;;;;;;;6125811;23;20021;-89
2024/01/01 07:24:41;;;;;;;17.45;5.57;;;;;;;;;;6125647;23;20061;-90
2024/01/01 07:27:25;;;;;;;18.90;5.72;;;;;;;;;;6125772;23;20020;-92
2024/01/01 07:30:17;;;;;;;20.23;6.43;;;;;;;;;;6126411;23;20509;-90
2024/01/01 07:33:03;;;;;;;25.88;7.22;;;;;;;;;;6125334;23;20498;-90
2024/01/01 07:35:47;;;;;;;27.58;6.32;;;;;;;;;;6126270;23;20025;-89
2024/01/01 07:38:36;;;;;;;25.00;6.85;;;;;;;;;;6125852;23;20041;-89
2024/01/01 07:41:21;;;;;;;26.13;5.68;;;;;;;;;;6124839;23;20044;-90
2024/01/01 07:44:33;;;;;;;22.15;5.72;;;;;;;;;;6125187;23;20036;-90
2024/01/01 07:47:26;;;;;;;25.02;5.63;;;;;;;;;;6156107;22;20082;-90
2024/01/01 07:54:14;;;;;;;21.55;6.03;;;;;;;;;;6156344;23;20116;-90
2024/01/01 08:08:17;;;;;;;21.63;4.43;;;;;;;;;;6218103;23;20393;-89
2024/01/01 08:11:01;;;;;;;22.17;5.25;;;;;;;;;;6167491;23;20021;-90
2024/01/01 08:13:45;;;;;;;16.88;5.65;;;;;;;;;;6134156;23;20024;-89
2024/01/01 08:16:33;;;;;;;17.88;5.15;;;;;;;;;;6133522;23;20396;-91
2024/01/01 08:19:18;;;;;;;18.98;5.72;;;;;;;;;;6133289;23;20024;-91
2024/01/01 08:22:02;;;;;;;15.52;5.93;;;;;;;;;;6133193;23;20097;-90
2024/01/01 08:31:54;;;;;;;31.30;7.25;;;;;;;;;;6165236;23;20016;-90
2024/01/01 08:34:38;;;;;;;28.85;5.45;;;;;;;;;;6134080;23;20063;-90
2024/01/01 08:37:23;;;;;;;24.23;4.72;;;;;;;;;;6130334;23;20024;-90
2024/01/01 08:40:06;;;;;;;25.30;4.68;;;;;;;;;;6130727;23;20040;-90
2024/01/01 08:42:51;;;;;;;17.13;3.97;;;;;;;;;;6131636;23;20064;-89
2024/01/01 08:45:35;;;;;;;21.38;5.30;;;;;;;;;;6130681;22;20056;-90
2024/01/01 08:48:22;;;;;;;25.33;6.05;;;;;;;;;;6130653;23;20063;-89
2024/01/01 08:51:06;;;;;;;30.05;7.38;;;;;;;;;;6129125;23;20020;-87
2024/01/01 08:53:50;;;;;;;39.80;5.63;;;;;;;;;;6128958;23;20070;-89
2024/01/01 08:56:34;;;;;;;30.25;4.47;;;;;;;;;;6128877;23;20059;-89
2024/01/01 08:59:21;;;;;;;25.17;6.50;;;;;;;;;;6128680;23;20025;-90
2024/01/01 09:02:09;;;;;;;23.20;4.78;;;;;;;;;;6130077;23;20415;-90
2024/01/01 09:04:55;;;;;;;40.25;5.32;;;;;;;;;;6128525;23;20025;-87
2024/01/01 09:07:39;;;;;;;29.40;5.82;;;;;;;;;;6132154;23;20067;-90
2024/01/01 09:14:29;;;;;;;23.98;8.73;;;;;;;;;;6153325;23;20105;-89
2024/01/01 09:17:13;;;;;;;33.03;9.80;;;;;;;;;;6130043;23;20074;-88
2024/01/01 09:19:57;;;;;;;30.10;11.32;;;;;;;;;;6130376;23;20403;-89
2024/01/01 09:22:41;;;;;;;30.77;10.60;;;;;;;;;;6130168;23;20141;-89
2024/01/01 09:25:25;;;;;;;32.20;11.68;;;;;;;;;;6131182;23;20102;-89
2024/01/01 09:28:09;;;;;;;34.47;12.57;;;;;;;;;;6131440;23;20057;-88
2024/01/01 09:30:54;;;;;;;29.55;11.18;;;;;;;;;;6131876;23;20095;-91
2024/01/01 09:33:39;;;;;;;34.53;9.82;;;;;;;;;;6129890;23;20017;-87
2024/01/01 09:36:29;;;;;;;31.23;9.43;;;;;;;;;;6128358;23;20036;-89
2024/01/01 09:39:13;;;;;;;22.58;8.48;;;;;;;;;;6130289;23;20024;-87
2024/01/01 09:42:01;;;;;;;26.20;7.95;;;;;;;;;;6152339;23;20021;-89
2024/01/01 09:44:50;;;;;;;31.50;8.18;;;;;;;;;;6130164;23;20020;-86
2024/01/01 09:47:35;;;;;;;28.00;8.02;;;;;;;;;;6130909;23;20033;-88
2024/01/01 09:50:19;;;;;;;31.73;9.02;;;;;;;;;;6130590;23;20071;-87
2024/01/01 09:53:03;;;;;;;32.05;10.90;;;;;;;;;;6129984;23;20036;-86
2024/01/01 09:55:54;;;;;;;23.75;10.18;;;;;;;;;;6128975;23;20071;-86
2024/01/01 09:58:42;;;;;;;28.63;10.65;;;;;;;;;;6151736;23;20163;-87
2024/01/01 10:01:26;;;;;;;29.48;10.63;;;;;;;;;;6129985;23;20471;-88
2024/01/01 10:04:10;;;;;;;20.42;8.32;;;;;;;;;;6130638;23;20045;-88
2024/01/01 10:06:54;;;;;;;34.92;8.02;;;;;;;;;;6128956;23;20128;-87
2024/01/01 10:13:51;;;;;;;23.17;6.65;;;;;;;;;;6176167;23;20016;-90
2024/01/01 10:20:19;;;;;;;24.80;4.93;;;;;;;;;;6139128;23;20351;-90
2024/01/01 10:41:17;;;;;;;19.10;3.65;;;;;;;;;;6161332;23;20024;-91
2024/01/01 10:58:16;;;;;;;19.48;4.03;;;;;;;;;;6220659;23;20007;-91
2024/01/01 11:01:02;;;;;;;21.38;3.75;;;;;;;;;;6219657;23;20027;-91
2024/01/01 11:03:47;;;;;;;48.35;6.57;;;;;;;;;;6196810;23;20627;-87
2024/01/01 11:10:03;;;;;;;16.45;3.67;;;;;;;;;;6217085;23;20019;-86
2024/01/01 11:12:47;;;;;;;20.45;3.30;;;;;;;;;;6217102;23;20493;-87
2024/01/01 11:15:41;;;;;;;23.00;4.07;;;;;;;;;;6216351;23;20106;-88
2024/01/01 11:18:32;;;;;;;21.13;3.90;;;;;;;;;;6247157;22;20022;-88
2024/01/01 11:21:29;;;;;;;22.40;3.95;;;;;;;;;;6256758;22;20388;-88
2024/01/01 11:24:37;;;;;;;22.67;3.78;;;;;;;;;;6257846;22;20018;-88
2024/01/01 11:27:28;;;;;;;19.73;2.97;;;;;;;;;;6256516;22;20014;-88
2024/01/01 11:30:13;;;;;;;19.75;3.55;;;;;;;;;;6258086;22;20018;-88
2024/01/01 11:33:02;;;;;;;15.27;3.83;;;;;;;;;;6258496;22;20022;-91
2024/01/01 11:35:47;;;;;;;23.25;3.20;;;;;;;;;;6261125;22;20022;-89
2024/01/01 11:38:31;;;;;;;22.38;4.03;;;;;;;;;;6209345;22;20018;-87
2024/01/01 11:41:21;;;;;;;25.45;3.10;;;;;;;;;;6253469;22;20708;-88
2024/01/01 11:44:14;;;;;;;18.30;2.90;;;;;;;;;;6252606;22;20014;-83
2024/01/01 11:46:58;;;;;;;20.50;4.53;;;;;;;;;;6251787;22;20050;-86
2024/01/01 11:49:42;;;;;;;13.85;3.80;;;;;;;;;;6228168;22;20036;-84
2024/01/01 11:52:26;;;;;;;31.63;4.03;;;;;;;;;;6128392;23;20424;-86
2024/01/01 11:55:10;;;;;;;11.55;2.58;;;;;;;;;;6128314;23;20067;-83
2024/01/01 11:57:54;;;;;;;15.18;2.67;;;;;;;;;;6128355;23;20097;-86
2024/01/01 12:00:39;;;;;;;17.42;2.40;;;;;;;;;;6150120;23;20023;-84
2024/01/01 12:03:23;;;;;;;10.30;2.33;;;;;;;;;;6128388;23;20063;-86
2024/01/01 12:06:07;;;;;;;12.80;3.15;;;;;;;;;;6128198;23;20067;-85
2024/01/01 12:09:12;;;;;;;12.55;2.40;;;;;;;;;;6128286;23;20096;-86
2024/01/01 12:12:05;;;;;;;18.73;3.05;;;;;;;;;;6128559;23;20028;-86
2024/01/01 12:14:49;;;;;;;12.13;2.17;;;;;;;;;;6128471;23;20132;-86
2024/01/01 12:17:44;;;;;;;13.82;2.63;;;;;;;;;;6129136;23;20082;-86
2024/01/01 12:20:28;;;;;;;18.80;3.17;;;;;;;;;;6128240;23;20040;-84
2024/01/01 12:23:12;;;;;;;16.58;3.60;;;;;;;;;;6128609;23;20063;-85
2024/01/01 12:26:06;;;;;;;17.38;3.28;;;;;;;;;;6128950;23;20081;-84
2024/01/01 12:29:12;;;;;;;30.00;4.63;;;;;;;;;;6130619;23;20064;-85
2024/01/01 12:32:24;;;;;;;21.35;3.75;;;;;;;;;;6148975;23;20029;-85
2024/01/01 12:35:09;;;;;;;21.30;4.15;;;;;;;;;;6128460;23;20442;-86
2024/01/01 12:37:56;;;;;;;19.80;3.53;;;;;;;;;;6128888;23;20139;-86
2024/01/01 12:40:41;;;;;;;15.60;3.08;;;;;;;;;;6128316;23;20078;-86
2024/01/01 12:43:25;;;;;;;23.35;3.97;;;;;;;;;;6150056;23;20020;-86
2024/01/01 12:46:12;;;;;;;13.77;2.90;;;;;;;;;;6127973;23;20467;-84
2024/01/01 12:48:56;;;;;;;16.42;3.80;;;;;;;;;;6127852;22;20024;-84
2024/01/01 12:51:39;;;;;;;19.67;3.92;;;;;;;;;;6128806;23;20094;-86
2024/01/01 12:54:26;;;;;;;13.57;2.92;;;;;;;;;;6128648;23;20028;-86
2024/01/01 12:57:10;;;;;;;20.10;3.85;;;;;;;;;;6150761;23;20024;-86
2024/01/01 12:59:54;;;;;;;21.92;3.15;;;;;;;;;;6127628;23;20108;-85
2024/01/01 13:02:39;;;;;;;28.98;4.10;;;;;;;;;;6150480;23;20048;-86
2024/01/01 13:05:23;;;;;;;15.32;3.42;;;;;;;;;;6128500;23;20466;-87
2024/01/01 13:08:07;;;;;;;16.25;2.88;;;;;;;;;;6127743;23;20450;-86
2024/01/01 13:10:51;;;;;;;16.38;3.70;;;;;;;;;;6127831;23;20067;-85
2024/01/01 13:13:37;;;;;;;20.90;3.15;;;;;;;;;;6149473;23;20079;-85
2024/01/01 13:16:20;;;;;;;13.25;3.15;;;;;;;;;;6128018;23;20028;-88
2024/01/01 13:19:05;;;;;;;25.67;3.58;;;;;;;;;;6128504;23;20025;-85
2024/01/01 13:21:49;;;;;;;18.30;3.40;;;;;;;;;;6129540;23;20107;-86
2024/01/01 13:24:38;;;;;;;16.15;3.38;;;;;;;;;;6129676;23;20171;-86
2024/01/01 13:27:22;;;;;;;25.98;4.22;;;;;;;;;;6129921;23;20016;-85
2024/01/01 13:30:07;;;;;;;16.83;4.88;;;;;;;;;;6129214;23;20028;-87
2024/01/01 13:32:51;;;;;;;18.75;2.90;;;;;;;;;;6129480;23;20075;-86
2024/01/01 13:35:35;;;;;;;16.70;3.90;;;;;;;;;;6129187;23;20052;-87
2024/01/01 13:38:19;;;;;;;20.48;3.30;;;;;;;;;;6129642;23;20028;-86
2024/01/01 13:41:04;;;;;;;17.33;3.42;;;;;;;;;;6129352;23;20021;-86
2024/01/01 13:43:48;;;;;;;21.48;4.30;;;;;;;;;;6129190;23;20397;-87
2024/01/01 13:46:33;;;;;;;21.75;3.65;;;;;;;;;;6129132;23;20048;-87
2024/01/01 13:49:17;;;;;;;22.10;3.78;;;;;;;;;;6129154;22;20036;-86
2024/01/01 13:52:02;;;;;;;15.88;3.75;;;;;;;;;;6128864;23;20071;-86
2024/01/01 13:54:46;;;;;;;17.17;3.92;;;;;;;;;;6128595;23;20056;-87
2024/01/01 13:57:30;;;;;;;16.42;3.13;;;;;;;;;;6129051;23;20023;-86
2024/01/01 14:00:15;;;;;;;18.48;3.50;;;;;;;;;;6129036;23;20097;-87
2024/01/01 14:02:59;;;;;;;18.65;5.68;;;;;;;;;;6129032;23;20016;-86
2024/01/01 14:05:43;;;;;;;20.23;5.18;;;;;;;;;;6128876;23;20058;-86
2024/01/01 14:08:27;;;;;;;19.48;6.20;;;;;;;;;;6128746;23;20017;-88
2024/01/01 14:11:12;;;;;;;17.13;6.28;;;;;;;;;;6128888;23;20486;-86
2024/01/01 14:13:56;;;;;;;31.67;13.30;;;;;;;;;;6128821;23;20046;-88
2024/01/01 14:16:46;;;;;;;28.23;7.97;;;;;;;;;;6129157;23;20021;-87
2024/01/01 14:19:33;;;;;;;27.33;6.22;;;;;;;;;;6129292;23;20025;-85
2024/01/01 14:22:17;;;;;;;31.90;6.10;;;;;;;;;;6129119;23;20052;-87
2024/01/01 14:25:01;;;;;;;25.15;7.95;;;;;;;;;;6128921;23;20044;-86
2024/01/01 14:27:45;;;;;;;29.92;7.80;;;;;;;;;;6129517;23;20336;-85
2024/01/01 14:30:29;;;;;;;30.15;13.40;;;;;;;;;;6128992;23;20056;-85
2024/01/01 14:33:13;;;;;;;27.67;9.82;;;;;;;;;;6129233;23;20475;-87
2024/01/01 14:35:57;;;;;;;22.05;5.03;;;;;;;;;;6129233;23;20032;-86
2024/01/01 14:38:41;;;;;;;25.17;4.82;;;;;;;;;;6129212;23;20459;-86
2024/01/01 14:41:25;;;;;;;16.98;4.28;;;;;;;;;;6129531;23;20466;-88
2024/01/01 14:44:08;;;;;;;23.17;5.75;;;;;;;;;;6128842;23;20386;-87
2024/01/01 14:46:53;;;;;;;21.27;7.22;;;;;;;;;;6128593;23;20021;-81
2024/01/01 14:49:37;;;;;;;33.08;8.27;;;;;;;;;;6127913;23;20071;-81
2024/01/01 14:52:21;;;;;;;31.65;10.32;;;;;;;;;;6127848;23;20038;-81
2024/01/01 14:55:05;;;;;;;30.35;10.02;;;;;;;;;;6149702;23;20020;-81
2024/01/01 14:57:49;;;;;;;27.15;8.77;;;;;;;;;;6126874;23;20081;-80
2024/01/01 15:00:33;;;;;;;54.47;25.95;;;;;;;;;;6148896;23;20020;-80
2024/01/01 15:03:17;;;;;;;45.72;13.55;;;;;;;;;;6126801;23;20027;-80
2024/01/01 15:06:02;;;;;;;37.05;9.73;;;;;;;;;;6127504;23;20016;-81
2024/01/01 15:08:46;;;;;;;30.05;10.10;;;;;;;;;;6149038;23;20040;-80
2024/01/01 15:11:30;;;;;;;26.00;8.75;;;;;;;;;;6126598;23;20028;-81
2024/01/01 15:14:14;;;;;;;37.80;9.13;;;;;;;;;;6128085;23;20025;-81
2024/01/01 15:17:01;;;;;;;32.38;7.85;;;;;;;;;;6150084;23;20071;-90
2024/01/01 15:19:45;;;;;;;36.63;10.40;;;;;;;;;;6128754;23;20020;-87
2024/01/01 15:22:29;;;;;;;37.47;7.10;;;;;;;;;;6128572;23;20075;-85
2024/01/01 15:25:13;;;;;;;29.58;7.05;;;;;;;;;;6128629;23;20043;-85
2024/01/01 15:27:57;;;;;;;39.08;9.30;;;;;;;;;;6152567;23;20068;-88
2024/01/01 15:30:45;;;;;;;42.53;13.40;;;;;;;;;;6130212;23;20083;-86
2024/01/01 15:33:32;;;;;;;32.28;9.77;;;;;;;;;;6129688;23;20043;-87
2024/01/01 15:36:16;;;;;;;32.35;9.02;;;;;;;;;;6151269;23;20148;-87
2024/01/01 15:39:00;;;;;;;23.08;8.68;;;;;;;;;;6149870;23;20025;-85
2024/01/01 15:41:45;;;;;;;29.88;9.00;;;;;;;;;;6128505;23;20021;-88
2024/01/01 15:44:29;;;;;;;38.10;8.65;;;;;;;;;;6128889;23;20017;-87
2024/01/01 15:47:13;;;;;;;28.40;8.50;;;;;;;;;;6152665;23;20070;-87
2024/01/01 15:49:56;;;;;;;26.40;10.52;;;;;;;;;;6150393;22;20028;-86
2024/01/01 15:52:44;;;;;;;43.95;8.98;;;;;;;;;;6128254;23;20382;-85
2024/01/01 15:55:28;;;;;;;32.10;10.82;;;;;;;;;;6131156;23;20074;-86
2024/01/01 15:58:12;;;;;;;31.10;11.05;;;;;;;;;;6151166;23;20105;-85
2024/01/01 16:00:56;;;;;;;49.70;15.00;;;;;;;;;;6129337;23;20071;-86
2024/01/01 16:03:40;;;;;;;73.57;22.42;;;;;;;;;;6150551;23;20096;-88
2024/01/01 16:06:24;;;;;;;41.00;11.80;;;;;;;;;;6128939;23;20020;-86
2024/01/01 16:09:08;;;;;;;45.53;12.63;;;;;;;;;;6151193;23;20049;-86
2024/01/01 16:11:53;;;;;;;52.45;15.18;;;;;;;;;;6128797;23;20071;-86
2024/01/01 16:14:37;;;;;;;112.13;31.25;;;;;;;;;;6128331;23;20087;-87
2024/01/01 16:17:21;;;;;;;59.10;16.80;;;;;;;;;;6128343;23;20071;-86
2024/01/01 16:20:08;;;;;;;44.63;11.18;;;;;;;;;;6128007;23;20059;-85
2024/01/01 16:22:53;;;;;;;47.75;14.55;;;;;;;;;;6127792;23;20021;-81
2024/01/01 16:25:38;;;;;;;113.40;24.45;;;;;;;;;;6127182;23;20024;-82
2024/01/01 16:28:21;;;;;;;69.18;16.58;;;;;;;;;;6127285;23;20066;-85
2024/01/01 16:31:05;;;;;;;75.03;21.08;;;;;;;;;;6127400;23;20067;-87
2024/01/01 16:33:49;;;;;;;50.80;14.70;;;;;;;;;;6127392;23;20060;-86
2024/01/01 16:36:34;;;;;;;37.75;10.32;;;;;;;;;;6127124;23;20085;-86
2024/01/01 16:39:18;;;;;;;38.38;10.35;;;;;;;;;;6127136;23;20112;-85
2024/01/01 16:42:03;;;;;;;24.55;10.52;;;;;;;;;;6127282;23;20074;-87
2024/01/01 16:44:47;;;;;;;49.50;14.10;;;;;;;;;;6149130;23;20020;-86
2024/01/01 16:47:31;;;;;;;61.92;20.27;;;;;;;;;;6126114;23;20389;-84
2024/01/01 16:50:17;;;;;;;68.32;25.80;;;;;;;;;;6127877;23;20079;-88
2024/01/01 16:53:02;;;;;;;46.83;15.23;;;;;;;;;;6127678;23;20063;-87
2024/01/01 16:55:51;;;;;;;38.40;12.35;;;;;;;;;;6127565;23;20095;-86
2024/01/01 16:58:36;;;;;;;53.58;21.20;;;;;;;;;;6128284;23;20561;-87
2024/01/01 17:01:23;;;;;;;46.15;16.63;;;;;;;;;;6150511;23;20020;-86
2024/01/01 17:04:07;;;;;;;32.50;14.32;;;;;;;;;;6129515;23;20066;-88
2024/01/01 17:06:51;;;;;;;51.95;16.40;;;;;;;;;;6150987;23;20027;-89
2024/01/01 17:09:36;;;;;;;48.95;16.65;;;;;;;;;;6128488;23;20136;-90
2024/01/01 17:12:20;;;;;;;49.08;17.15;;;;;;;;;;6149970;23;20045;-86
2024/01/01 17:15:06;;;;;;;30.42;14.27;;;;;;;;;;6128254;23;20024;-87
2024/01/01 17:17:50;;;;;;;54.00;13.32;;;;;;;;;;6128403;23;20037;-88
2024/01/01 17:20:35;;;;;;;46.78;13.68;;;;;;;;;;6150015;23;20110;-87
2024/01/01 17:23:20;;;;;;;55.35;15.30;;;;;;;;;;6150850;23;20021;-90
2024/01/01 17:26:07;;;;;;;48.80;14.50;;;;;;;;;;6150467;23;20024;-87